Ridgeville, Indiana
Current Conditions -  °F | °C
As of 3:53 AM on Thursday 18 Dec 2014 (Local Time) from KMIE Reporting Station
Overcast Overcast  
Wind Chill: 19°   Ceiling: 2400
Heat Index: 25°   Visibility: 10mi
Dew Point: 19°   Wind: 5mph
Humidity: 78%   Direction: 260°W
Pressure: 30.27"   Gusts: NA
Location:  40.29°N, 85.03°W
Report Text: KMIE 180853Z AUTO 26004KT 10SM OVC024 M04/M07 A3027 RMK AO2 SLP258 T10391072 53000
Loading
Personal Weather Stations






























Interactive Weather Map New forecast layout! Learn more

10-Day Weather Forecast

Advertisements
Track Severe Weather on mobile